createdAt,value
2022-10-20T00:00:32.894Z,50.908169
2022-10-20T00:01:32.887Z,50.908169
2022-10-20T00:02:32.959Z,50.908154
2022-10-20T00:03:32.901Z,50.908127
2022-10-20T00:04:32.863Z,50.908138
2022-10-20T00:05:32.850Z,50.908070
2022-10-20T00:06:32.848Z,50.908115
2022-10-20T00:07:32.839Z,50.908142
2022-10-20T00:08:32.904Z,50.908134
2022-10-20T00:09:32.824Z,50.908115
2022-10-20T00:10:32.817Z,50.908089
2022-10-20T00:11:32.811Z,50.908154
2022-10-20T00:12:32.987Z,50.908188
2022-10-20T00:13:32.821Z,50.908127
2022-10-20T00:14:32.783Z,50.908131
2022-10-20T00:15:32.773Z,50.908173
2022-10-20T00:16:32.769Z,50.908154
2022-10-20T00:17:32.761Z,50.908100
2022-10-20T00:18:32.777Z,50.908184
2022-10-20T00:19:32.742Z,50.908112
2022-10-20T00:20:32.735Z,50.908169
2022-10-20T00:21:32.727Z,50.908176
2022-10-20T00:22:32.866Z,50.908123
2022-10-20T00:23:32.748Z,50.908161
2022-10-20T00:24:32.708Z,50.908134
2022-10-20T00:25:32.695Z,50.908138
2022-10-20T00:26:32.686Z,50.908146
2022-10-20T00:27:32.678Z,50.908108
2022-10-20T00:28:32.669Z,50.908150
2022-10-20T00:29:32.676Z,50.908119
2022-10-20T00:30:33.651Z,50.908150
2022-10-20T00:31:32.645Z,50.908073
2022-10-20T00:32:32.966Z,50.908157
2022-10-20T00:33:32.657Z,50.908134
2022-10-20T00:34:32.622Z,50.908123
2022-10-20T00:35:32.609Z,50.908134
2022-10-20T00:36:32.602Z,50.908104
2022-10-20T00:37:32.593Z,50.908134
2022-10-20T00:38:32.611Z,50.908154
2022-10-20T00:39:32.578Z,50.908176
2022-10-20T00:40:32.573Z,50.908043
2022-10-20T00:41:32.561Z,50.908081
2022-10-20T00:42:32.857Z,50.908150
2022-10-20T00:43:32.577Z,50.908272
2022-10-20T00:44:32.542Z,50.908150
2022-10-20T00:45:32.536Z,50.908131
2022-10-20T00:46:32.519Z,50.908035
2022-10-20T00:47:32.531Z,50.908115
2022-10-20T00:48:32.534Z,50.908142
2022-10-20T00:49:32.500Z,50.908138
2022-10-20T00:50:32.493Z,50.908157
2022-10-20T00:51:32.490Z,50.908161
2022-10-20T00:52:32.672Z,50.908119
2022-10-20T00:53:32.500Z,50.908115
2022-10-20T00:54:32.462Z,50.908169
2022-10-20T00:55:32.454Z,50.908146
2022-10-20T00:56:32.447Z,50.908184
2022-10-20T00:57:32.678Z,50.908092
2022-10-20T00:58:32.457Z,50.908108
2022-10-20T00:59:32.426Z,50.908184
2022-10-20T01:00:32.414Z,50.908142
2022-10-20T01:01:32.456Z,50.908150
2022-10-20T01:02:32.406Z,50.908123
2022-10-20T01:03:32.420Z,50.908154
2022-10-20T01:04:32.390Z,50.908150
2022-10-20T01:05:32.375Z,50.908104
2022-10-20T01:06:32.374Z,50.908142
2022-10-20T01:07:32.423Z,50.908154
2022-10-20T01:08:32.421Z,50.908112
2022-10-20T01:09:32.347Z,50.908089
2022-10-20T01:10:32.345Z,50.908081
2022-10-20T01:11:32.331Z,50.908138
2022-10-20T01:12:32.323Z,50.908154
2022-10-20T01:13:32.339Z,50.908108
2022-10-20T01:14:32.308Z,50.908138
2022-10-20T01:15:32.304Z,50.908157
2022-10-20T01:16:32.289Z,50.908146
2022-10-20T01:17:32.315Z,50.908150
2022-10-20T01:18:32.316Z,50.908142
2022-10-20T01:19:32.268Z,50.908146
2022-10-20T01:20:32.257Z,50.908104
2022-10-20T01:21:32.255Z,50.908173
2022-10-20T01:22:32.246Z,50.908142
2022-10-20T01:23:32.267Z,50.908115
2022-10-20T01:24:32.236Z,50.908150
2022-10-20T01:25:32.224Z,50.908154
2022-10-20T01:26:32.214Z,50.908119
2022-10-20T01:27:32.207Z,50.908142
2022-10-20T01:28:32.234Z,50.908131
2022-10-20T01:29:32.194Z,50.908108
2022-10-20T01:30:32.189Z,50.908119
2022-10-20T01:31:32.176Z,50.908165
2022-10-20T01:32:32.172Z,50.908188
2022-10-20T01:33:32.196Z,50.908211
2022-10-20T01:34:32.156Z,50.908241
2022-10-20T01:35:32.144Z,50.908207
2022-10-20T01:36:32.141Z,50.908138
2022-10-20T01:37:48.575Z,50.908054
2022-10-20T01:38:34.158Z,50.908009
2022-10-20T01:39:32.117Z,50.908062
2022-10-20T01:40:32.118Z,50.908169
2022-10-20T01:41:32.103Z,50.908119
2022-10-20T01:42:32.171Z,50.908154
2022-10-20T01:43:32.125Z,50.908081
2022-10-20T01:44:32.087Z,50.908005
2022-10-20T01:45:32.079Z,50.908009
2022-10-20T01:46:32.073Z,50.908024
2022-10-20T01:47:32.068Z,50.908092
2022-10-20T01:48:32.058Z,50.908066
2022-10-20T01:49:32.078Z,50.908154
2022-10-20T01:50:32.048Z,50.908131
2022-10-20T01:51:32.084Z,50.908165
2022-10-20T01:52:32.027Z,50.908272
2022-10-20T01:53:32.052Z,50.908245
2022-10-20T01:54:32.017Z,50.908157
2022-10-20T01:55:32.002Z,50.908142
2022-10-20T01:56:31.996Z,50.908047
2022-10-20T01:57:31.990Z,50.908016
2022-10-20T01:58:31.978Z,50.908066
2022-10-20T01:59:31.992Z,50.908100
2022-10-20T02:00:31.960Z,50.908199
2022-10-20T02:01:32.044Z,50.908073
2022-10-20T02:02:31.949Z,50.908104
2022-10-20T02:03:31.947Z,50.908073
2022-10-20T02:04:31.956Z,50.908112
2022-10-20T02:05:31.925Z,50.908070
2022-10-20T02:06:31.914Z,50.908001
2022-10-20T02:07:31.910Z,50.908092
2022-10-20T02:08:32.038Z,50.908138
2022-10-20T02:09:31.923Z,50.908096
2022-10-20T02:10:31.893Z,50.908051
2022-10-20T02:11:31.890Z,50.908089
2022-10-20T02:12:31.873Z,50.908081
2022-10-20T02:13:31.863Z,50.908127
2022-10-20T02:14:31.886Z,50.908127
2022-10-20T02:15:31.854Z,50.908154
2022-10-20T02:16:31.848Z,50.908176
2022-10-20T02:17:31.842Z,50.908180
2022-10-20T02:18:31.831Z,50.908154
2022-10-20T02:19:31.843Z,50.908138
2022-10-20T02:20:31.821Z,50.908115
2022-10-20T02:21:31.804Z,50.908134
2022-10-20T02:22:31.798Z,50.908104
2022-10-20T02:23:35.108Z,50.908092
2022-10-20T02:24:33.806Z,50.908154
2022-10-20T02:25:31.777Z,50.908142
2022-10-20T02:26:31.768Z,50.908123
2022-10-20T02:27:31.758Z,50.908112
2022-10-20T02:28:31.755Z,50.908131
2022-10-20T02:29:31.771Z,50.908127
2022-10-20T02:30:31.734Z,50.908127
2022-10-20T02:31:31.727Z,50.908131
2022-10-20T02:32:31.716Z,50.908096
2022-10-20T02:33:31.711Z,50.908100
2022-10-20T02:34:31.733Z,50.908119
2022-10-20T02:35:31.701Z,50.908092
2022-10-20T02:36:31.693Z,50.908054
2022-10-20T02:37:31.687Z,50.908070
2022-10-20T02:38:31.677Z,50.908085
2022-10-20T02:39:31.693Z,50.908131
2022-10-20T02:40:31.664Z,50.908112
2022-10-20T02:41:31.653Z,50.908092
2022-10-20T02:42:31.690Z,50.908112
2022-10-20T02:43:31.645Z,50.908108
2022-10-20T02:44:31.667Z,50.908115
2022-10-20T02:45:31.624Z,50.908138
2022-10-20T02:46:31.612Z,50.908100
2022-10-20T02:47:32.615Z,50.908081
2022-10-20T02:48:31.606Z,50.908066
2022-10-20T02:49:31.622Z,50.908073
2022-10-20T02:50:31.590Z,50.908092
2022-10-20T02:51:31.588Z,50.908085
2022-10-20T02:52:31.576Z,50.908085
2022-10-20T02:53:31.568Z,50.908012
2022-10-20T02:54:31.585Z,50.908054
2022-10-20T02:55:31.555Z,50.908058
2022-10-20T02:56:31.545Z,50.908062
2022-10-20T02:57:31.537Z,50.908070
2022-10-20T02:58:31.548Z,50.908035
2022-10-20T02:59:31.552Z,50.908028
2022-10-20T03:00:31.519Z,50.908047
2022-10-20T03:01:31.585Z,50.908047
2022-10-20T03:02:31.503Z,50.908043
2022-10-20T03:03:31.490Z,50.908051
2022-10-20T03:04:31.511Z,50.908112
2022-10-20T03:05:31.480Z,50.908077
2022-10-20T03:06:31.474Z,50.908089
2022-10-20T03:07:31.465Z,50.908054
2022-10-20T03:08:31.571Z,50.907970
2022-10-20T03:09:31.460Z,50.908092
2022-10-20T03:10:32.442Z,50.908085
2022-10-20T03:11:31.429Z,50.908096
2022-10-20T03:12:32.290Z,50.908070
2022-10-20T03:13:32.424Z,50.908073
2022-10-20T03:14:31.431Z,50.908058
2022-10-20T03:15:31.397Z,50.908054
2022-10-20T03:16:31.393Z,50.908115
2022-10-20T03:17:31.385Z,50.908077
2022-10-20T03:18:31.377Z,50.908092
2022-10-20T03:19:31.395Z,50.908108
2022-10-20T03:20:31.357Z,50.908096
2022-10-20T03:21:31.354Z,50.908062
2022-10-20T03:22:31.351Z,50.908070
2022-10-20T03:23:31.343Z,50.908077
2022-10-20T03:24:31.358Z,50.908047
2022-10-20T03:25:31.323Z,50.908016
2022-10-20T03:26:31.314Z,50.907951
2022-10-20T03:27:31.310Z,50.907986
2022-10-20T03:28:31.313Z,50.908104
2022-10-20T03:29:31.315Z,50.908108
2022-10-20T03:30:31.307Z,50.908089
2022-10-20T03:31:31.279Z,50.908138
2022-10-20T03:32:31.273Z,50.908215
2022-10-20T03:33:31.262Z,50.908253
2022-10-20T03:34:31.279Z,50.908161
2022-10-20T03:35:31.241Z,50.908161
2022-10-20T03:36:32.239Z,50.908031
2022-10-20T03:37:31.235Z,50.907833
2022-10-20T03:38:31.225Z,50.907871
2022-10-20T03:39:31.243Z,50.907894
2022-10-20T03:40:31.213Z,50.908012
2022-10-20T03:41:31.200Z,50.908119
2022-10-20T03:42:31.193Z,50.908333
2022-10-20T03:43:31.188Z,50.908211
2022-10-20T03:44:31.206Z,50.908253
2022-10-20T03:45:31.173Z,50.908092
2022-10-20T03:46:31.170Z,50.908112
2022-10-20T03:47:31.171Z,50.908131
2022-10-20T03:48:31.151Z,50.908154
2022-10-20T03:49:31.172Z,50.908150
2022-10-20T03:50:31.139Z,50.908165
2022-10-20T03:51:31.129Z,50.908142
2022-10-20T03:52:31.123Z,50.908146
2022-10-20T03:53:31.120Z,50.908192
2022-10-20T03:54:31.141Z,50.908169
2022-10-20T03:55:31.103Z,50.908161
2022-10-20T03:56:31.104Z,50.908104
2022-10-20T03:57:31.089Z,50.908154
2022-10-20T03:58:31.088Z,50.908199
2022-10-20T03:59:31.078Z,50.907963
2022-10-20T04:00:31.093Z,50.908039
2022-10-20T04:01:31.109Z,50.908108
2022-10-20T04:02:31.056Z,50.908176
2022-10-20T04:03:31.052Z,50.908184
2022-10-20T04:04:31.027Z,50.908138
2022-10-20T04:05:32.059Z,50.908169
2022-10-20T04:06:31.032Z,50.908100
2022-10-20T04:07:31.020Z,50.908134
2022-10-20T04:08:31.062Z,50.908165
2022-10-20T04:09:31.017Z,50.908222
2022-10-20T04:10:31.022Z,50.908104
2022-10-20T04:11:30.995Z,50.908119
2022-10-20T04:12:30.989Z,50.908154
2022-10-20T04:13:30.980Z,50.908211
2022-10-20T04:14:30.974Z,50.908157
2022-10-20T04:15:30.990Z,50.908184
2022-10-20T04:16:30.956Z,50.908176
2022-10-20T04:17:30.974Z,50.908157
2022-10-20T04:18:30.928Z,50.908195
2022-10-20T04:19:31.932Z,50.908169
2022-10-20T04:20:30.959Z,50.908199
2022-10-20T04:21:30.926Z,50.908134
2022-10-20T04:22:30.915Z,50.908112
2022-10-20T04:23:30.906Z,50.908123
2022-10-20T04:24:30.897Z,50.908119
2022-10-20T04:25:30.919Z,50.908226
2022-10-20T04:26:30.881Z,50.908115
2022-10-20T04:27:30.874Z,50.908138
2022-10-20T04:28:30.868Z,50.908123
2022-10-20T04:29:30.858Z,50.908169
2022-10-20T04:30:30.876Z,50.908123
2022-10-20T04:31:30.844Z,50.908142
2022-10-20T04:32:30.839Z,50.908154
2022-10-20T04:33:30.833Z,50.908131
2022-10-20T04:34:30.823Z,50.908184
2022-10-20T04:35:30.836Z,50.908150
2022-10-20T04:36:30.809Z,50.908138
2022-10-20T04:37:30.802Z,50.908119
2022-10-20T04:38:30.793Z,50.908161
2022-10-20T04:39:30.784Z,50.908146
2022-10-20T04:40:30.805Z,50.908142
2022-10-20T04:41:30.767Z,50.908134
2022-10-20T04:42:30.758Z,50.908150
2022-10-20T04:43:30.753Z,50.908119
2022-10-20T04:44:30.746Z,50.908123
2022-10-20T04:45:30.762Z,50.908142
2022-10-20T04:46:30.724Z,50.908119
2022-10-20T04:47:31.724Z,50.908115
2022-10-20T04:48:30.718Z,50.908138
2022-10-20T04:49:30.710Z,50.908134
2022-10-20T04:50:30.766Z,50.908104
2022-10-20T04:51:30.693Z,50.908123
2022-10-20T04:52:30.688Z,50.908157
2022-10-20T04:53:30.682Z,50.908131
2022-10-20T04:54:30.675Z,50.908142
2022-10-20T04:55:30.688Z,50.908146
2022-10-20T04:56:30.654Z,50.908131
2022-10-20T04:57:30.654Z,50.908123
2022-10-20T04:58:30.642Z,50.908112
2022-10-20T04:59:30.640Z,50.908180
2022-10-20T05:00:30.658Z,50.908112
2022-10-20T05:01:30.642Z,50.908134
2022-10-20T05:02:30.618Z,50.908154
2022-10-20T05:03:30.607Z,50.908165
2022-10-20T05:04:30.605Z,50.908165
2022-10-20T05:05:30.620Z,50.908142
2022-10-20T05:06:30.588Z,50.908112
2022-10-20T05:07:30.579Z,50.908119
2022-10-20T05:08:30.630Z,50.908146
2022-10-20T05:09:30.597Z,50.908146
2022-10-20T05:10:34.417Z,50.908157
2022-10-20T05:11:32.552Z,50.908127
2022-10-20T05:12:30.542Z,50.908150
2022-10-20T05:13:30.530Z,50.908169
2022-10-20T05:14:30.523Z,50.908150
2022-10-20T05:15:30.549Z,50.908146
2022-10-20T05:16:30.521Z,50.908173
2022-10-20T05:17:30.506Z,50.908142
2022-10-20T05:18:30.494Z,50.908150
2022-10-20T05:19:30.492Z,50.908146
2022-10-20T05:20:36.789Z,50.908146
2022-10-20T05:21:32.583Z,50.908142
2022-10-20T05:22:30.469Z,50.908081
2022-10-20T05:23:30.464Z,50.908104
2022-10-20T05:24:30.458Z,50.908123
2022-10-20T05:25:36.424Z,50.908112
2022-10-20T05:26:32.440Z,50.908146
2022-10-20T05:27:30.434Z,50.908134
2022-10-20T05:28:30.431Z,50.908066
2022-10-20T05:29:30.426Z,50.908134
2022-10-20T05:30:30.459Z,50.908150
2022-10-20T05:31:30.431Z,50.908161
2022-10-20T05:32:30.406Z,50.908092
2022-10-20T05:33:30.392Z,50.908161
2022-10-20T05:34:30.380Z,50.908146
2022-10-20T05:35:30.556Z,50.908134
2022-10-20T05:36:30.374Z,50.908073
2022-10-20T05:37:30.364Z,50.908154
2022-10-20T05:38:30.355Z,50.908142
2022-10-20T05:39:30.340Z,50.908054
2022-10-20T05:40:30.360Z,50.908142
2022-10-20T05:41:32.212Z,50.908195
2022-10-20T05:42:30.328Z,50.908131
2022-10-20T05:43:30.309Z,50.908176
2022-10-20T05:44:30.309Z,50.908127
2022-10-20T05:45:30.327Z,50.908100
2022-10-20T05:46:30.292Z,50.908157
2022-10-20T05:47:30.287Z,50.908188
2022-10-20T05:48:30.276Z,50.908146
2022-10-20T05:49:30.267Z,50.908173
2022-10-20T05:50:30.288Z,50.908146
2022-10-20T05:51:30.258Z,50.908188
2022-10-20T05:52:30.241Z,50.908211
2022-10-20T05:53:30.238Z,50.908203
2022-10-20T05:54:30.236Z,50.908154
2022-10-20T05:55:30.253Z,50.908085
2022-10-20T05:56:30.219Z,50.908104
2022-10-20T05:57:30.212Z,50.908092
2022-10-20T05:58:30.202Z,50.908138
2022-10-20T05:59:30.195Z,50.908165
2022-10-20T06:00:30.333Z,50.908180
2022-10-20T06:01:30.264Z,50.908264
2022-10-20T06:02:30.173Z,50.908199
2022-10-20T06:03:30.167Z,50.908192
2022-10-20T06:04:30.164Z,50.908215
2022-10-20T06:05:30.173Z,50.908150
2022-10-20T06:06:30.144Z,50.908070
2022-10-20T06:07:30.137Z,50.907978
2022-10-20T06:08:30.146Z,50.908073
2022-10-20T06:09:30.120Z,50.908035
2022-10-20T06:10:30.147Z,50.908051
2022-10-20T06:11:30.100Z,50.908081
2022-10-20T06:12:30.096Z,50.908131
2022-10-20T06:13:30.088Z,50.908142
2022-10-20T06:14:30.085Z,50.908215
2022-10-20T06:15:30.108Z,50.908215
2022-10-20T06:16:30.069Z,50.908215
2022-10-20T06:17:30.064Z,50.908268
2022-10-20T06:18:30.054Z,50.908257
2022-10-20T06:19:30.043Z,50.908012
2022-10-20T06:20:30.035Z,50.908066
2022-10-20T06:21:30.085Z,50.908070
2022-10-20T06:22:30.022Z,50.908119
2022-10-20T06:23:30.009Z,50.908134
2022-10-20T06:24:30.005Z,50.908154
2022-10-20T06:25:29.994Z,50.908085
2022-10-20T06:26:30.067Z,50.908150
2022-10-20T06:27:29.978Z,50.908127
2022-10-20T06:28:29.970Z,50.908222
2022-10-20T06:29:29.967Z,50.908112
2022-10-20T06:30:29.945Z,50.908150
2022-10-20T06:31:30.997Z,50.908138
2022-10-20T06:32:29.941Z,50.908138
2022-10-20T06:33:29.936Z,50.908386
2022-10-20T06:34:29.921Z,50.908154
2022-10-20T06:35:29.913Z,50.908134
2022-10-20T06:36:29.929Z,50.907990
2022-10-20T06:37:29.898Z,50.908092
2022-10-20T06:38:29.892Z,50.908089
2022-10-20T06:39:29.882Z,50.908092
2022-10-20T06:40:29.878Z,50.908104
2022-10-20T06:41:29.902Z,50.908123
2022-10-20T06:42:29.864Z,50.908131
2022-10-20T06:43:29.855Z,50.908188
2022-10-20T06:44:29.848Z,50.908112
2022-10-20T06:45:29.836Z,50.908138
2022-10-20T06:46:29.853Z,50.908123
2022-10-20T06:47:29.829Z,50.908089
2022-10-20T06:48:29.822Z,50.908108
2022-10-20T06:49:29.810Z,50.908112
2022-10-20T06:50:29.812Z,50.908092
2022-10-20T06:51:29.828Z,50.908119
2022-10-20T06:52:29.784Z,50.908119
2022-10-20T06:53:29.788Z,50.908112
2022-10-20T06:54:29.769Z,50.908134
2022-10-20T06:55:29.753Z,50.908123
2022-10-20T06:56:29.783Z,50.908146
2022-10-20T06:57:29.747Z,50.908131
2022-10-20T06:58:29.750Z,50.908127
2022-10-20T06:59:29.727Z,50.908127
2022-10-20T07:01:29.798Z,50.908092
2022-10-20T07:02:29.704Z,50.908062
2022-10-20T07:03:29.703Z,50.908077
2022-10-20T07:04:29.692Z,50.908089
2022-10-20T07:05:29.689Z,50.908100
2022-10-20T07:06:29.709Z,50.908100
2022-10-20T07:07:29.694Z,50.908115
2022-10-20T07:08:29.676Z,50.908123
2022-10-20T07:09:29.654Z,50.908127
2022-10-20T07:10:29.647Z,50.908123
2022-10-20T07:11:29.658Z,50.908138
2022-10-20T07:12:29.627Z,50.908115
2022-10-20T07:13:29.624Z,50.908142
2022-10-20T07:14:32.390Z,50.908138
2022-10-20T07:15:30.603Z,50.908073
2022-10-20T07:16:29.620Z,50.908058
2022-10-20T07:17:29.587Z,50.908100
2022-10-20T07:18:29.584Z,50.908070
2022-10-20T07:19:29.571Z,50.908123
2022-10-20T07:20:29.560Z,50.908146
2022-10-20T07:21:32.659Z,50.908192
2022-10-20T07:22:31.549Z,50.908100
2022-10-20T07:23:29.537Z,50.908134
2022-10-20T07:24:29.532Z,50.908188
2022-10-20T07:25:29.527Z,50.908150
2022-10-20T07:26:29.529Z,50.908157
2022-10-20T07:27:30.510Z,50.908157
2022-10-20T07:28:29.498Z,50.908169
2022-10-20T07:29:29.573Z,50.908161
2022-10-20T07:30:29.491Z,50.908203
2022-10-20T07:31:29.505Z,50.908127
2022-10-20T07:32:29.470Z,50.908142
2022-10-20T07:33:29.465Z,50.908142
2022-10-20T07:34:29.463Z,50.908134
2022-10-20T07:35:29.446Z,50.908169
2022-10-20T07:36:33.540Z,50.908134
2022-10-20T07:37:31.430Z,50.908131
2022-10-20T07:38:29.420Z,50.908127
2022-10-20T07:39:29.417Z,50.908127
2022-10-20T07:40:29.407Z,50.908150
2022-10-20T07:41:29.438Z,50.908138
2022-10-20T07:42:29.395Z,50.908112
2022-10-20T07:43:29.388Z,50.908112
2022-10-20T07:44:29.387Z,50.908123
2022-10-20T07:45:29.365Z,50.908127
2022-10-20T07:46:29.378Z,50.908066
2022-10-20T07:47:29.346Z,50.908009
2022-10-20T07:48:29.341Z,50.908066
2022-10-20T07:49:45.263Z,50.907993
2022-10-20T07:50:31.326Z,50.907959
2022-10-20T07:51:29.322Z,50.908051
2022-10-20T07:52:29.330Z,50.908127
2022-10-20T07:53:29.297Z,50.908249
2022-10-20T07:54:29.296Z,50.908222
2022-10-20T07:55:38.709Z,50.908150
2022-10-20T07:56:31.303Z,50.908226
2022-10-20T07:57:29.272Z,50.908283
2022-10-20T07:58:29.263Z,50.908123
2022-10-20T07:59:29.254Z,50.908108
2022-10-20T08:00:29.292Z,50.908150
2022-10-20T08:01:29.263Z,50.908131
2022-10-20T08:02:29.261Z,50.908131
2022-10-20T08:03:29.224Z,50.908169
2022-10-20T08:04:29.218Z,50.908169
2022-10-20T08:05:29.208Z,50.908165
2022-10-20T08:06:29.200Z,50.908169
2022-10-20T08:07:29.215Z,50.908180
2022-10-20T08:08:29.245Z,50.908146
2022-10-20T08:09:29.222Z,50.908134
2022-10-20T08:10:29.169Z,50.908154
2022-10-20T08:11:29.160Z,50.908138
2022-10-20T08:12:29.172Z,50.908127
2022-10-20T08:13:29.139Z,50.908134
2022-10-20T08:14:29.135Z,50.908131
2022-10-20T08:15:29.146Z,50.908119
2022-10-20T08:16:30.865Z,50.908127
2022-10-20T08:17:29.135Z,50.908146
2022-10-20T08:18:30.308Z,50.908131
2022-10-20T08:19:35.305Z,50.908138
2022-10-20T08:20:31.810Z,50.908146
2022-10-20T08:21:29.109Z,50.908150
2022-10-20T08:22:29.091Z,50.908134
2022-10-20T08:23:29.058Z,50.908142
2022-10-20T08:24:29.054Z,50.908054
2022-10-20T08:25:29.052Z,50.908104
2022-10-20T08:26:29.037Z,50.908123
2022-10-20T08:27:29.079Z,50.908119
2022-10-20T08:28:29.030Z,50.908119
2022-10-20T08:29:29.018Z,50.908180
2022-10-20T08:30:29.021Z,50.908184
2022-10-20T08:31:29.012Z,50.908192
2022-10-20T08:32:29.026Z,50.908157
2022-10-20T08:33:28.989Z,50.908134
2022-10-20T08:34:28.985Z,50.908192
2022-10-20T08:35:28.983Z,50.908131
2022-10-20T08:36:28.971Z,50.908146
2022-10-20T08:37:28.984Z,50.908100
2022-10-20T08:38:28.999Z,50.908165
2022-10-20T08:39:28.942Z,50.908150
2022-10-20T08:40:28.933Z,50.908146
2022-10-20T08:41:34.578Z,50.908146
2022-10-20T08:42:30.942Z,50.908096
2022-10-20T08:43:28.924Z,50.908134
2022-10-20T08:44:28.910Z,50.908119
2022-10-20T08:45:28.896Z,50.908081
2022-10-20T08:46:28.885Z,50.908104
2022-10-20T08:47:32.333Z,50.908127
2022-10-20T08:48:28.873Z,50.908146
2022-10-20T08:49:28.891Z,50.908115
2022-10-20T08:50:28.857Z,50.908142
2022-10-20T08:51:28.853Z,50.908188
2022-10-20T08:52:28.862Z,50.908161
2022-10-20T08:53:28.825Z,50.908146
2022-10-20T08:54:28.824Z,50.908142
2022-10-20T08:55:28.816Z,50.908119
2022-10-20T08:56:28.804Z,50.908119
2022-10-20T08:57:28.845Z,50.908112
2022-10-20T08:58:28.794Z,50.908154
2022-10-20T08:59:28.801Z,50.908115
2022-10-20T09:00:28.787Z,50.908192
2022-10-20T09:01:28.843Z,50.908207
2022-10-20T09:02:28.791Z,50.908195
2022-10-20T09:03:28.758Z,50.908176
2022-10-20T09:04:28.740Z,50.908154
2022-10-20T09:05:28.732Z,50.908123
2022-10-20T09:06:28.728Z,50.908142
2022-10-20T09:07:28.747Z,50.908127
2022-10-20T09:08:28.764Z,50.908150
2022-10-20T09:09:28.703Z,50.908070
2022-10-20T09:10:28.691Z,50.908085
2022-10-20T09:11:28.689Z,50.908062
2022-10-20T09:12:31.043Z,50.908081
2022-10-20T09:13:29.669Z,50.908108
2022-10-20T09:14:28.670Z,50.908104
2022-10-20T09:15:28.649Z,50.908100
2022-10-20T09:16:41.030Z,50.908150
2022-10-20T09:17:29.663Z,50.908123
2022-10-20T09:18:28.632Z,50.908134
2022-10-20T09:19:28.622Z,50.908100
2022-10-20T09:20:28.622Z,50.908115
2022-10-20T09:21:28.609Z,50.908077
2022-10-20T09:22:33.363Z,50.908154
2022-10-20T09:23:42.170Z,50.908131
2022-10-20T09:24:30.587Z,50.908058
2022-10-20T09:25:28.581Z,50.908062
2022-10-20T09:26:44.960Z,50.908123
2022-10-20T09:27:30.589Z,50.908104
2022-10-20T09:28:34.225Z,50.908085
2022-10-20T09:29:29.551Z,50.908070
2022-10-20T09:30:28.540Z,50.908119
2022-10-20T09:31:28.533Z,50.908119
2022-10-20T09:32:45.670Z,50.908108
2022-10-20T09:33:30.520Z,50.908138
2022-10-20T09:34:28.518Z,50.908119
2022-10-20T09:35:28.530Z,50.908138
2022-10-20T09:36:28.504Z,50.908108
2022-10-20T09:37:28.538Z,50.908112
2022-10-20T09:38:28.487Z,50.908020
2022-10-20T09:39:28.469Z,50.907959
2022-10-20T09:40:28.464Z,50.908020
2022-10-20T09:41:28.466Z,50.908150
2022-10-20T09:42:28.455Z,50.908169
2022-10-20T09:43:28.468Z,50.908276
2022-10-20T09:44:28.440Z,50.908134
2022-10-20T09:45:28.430Z,50.908051
2022-10-20T09:46:28.434Z,50.908054
2022-10-20T09:47:28.413Z,50.908062
2022-10-20T09:48:28.439Z,50.907951
2022-10-20T09:49:28.404Z,50.908085
2022-10-20T09:50:28.390Z,50.908115
2022-10-20T09:51:28.384Z,50.908100
2022-10-20T09:52:28.369Z,50.908108
2022-10-20T09:53:28.393Z,50.908104
2022-10-20T09:54:28.382Z,50.908100
2022-10-20T09:55:28.345Z,50.908108
2022-10-20T09:56:28.338Z,50.908127
2022-10-20T09:57:28.333Z,50.908138
2022-10-20T09:58:28.349Z,50.908119
2022-10-20T09:59:28.343Z,50.908119
2022-10-20T10:00:39.675Z,50.908146
2022-10-20T10:01:30.333Z,50.908142
2022-10-20T10:02:28.297Z,50.908070
2022-10-20T10:03:28.357Z,50.908085
2022-10-20T10:04:28.274Z,50.908062
2022-10-20T10:05:28.265Z,50.908073
2022-10-20T10:06:28.258Z,50.908051
2022-10-20T10:07:28.250Z,50.908062
2022-10-20T10:08:28.343Z,50.908077
2022-10-20T10:09:28.249Z,50.908062
2022-10-20T10:10:28.243Z,50.908054
2022-10-20T10:11:28.219Z,50.908043
2022-10-20T10:12:28.210Z,50.908070
2022-10-20T10:13:28.231Z,50.908073
2022-10-20T10:14:28.194Z,50.908096
2022-10-20T10:15:28.187Z,50.908096
2022-10-20T10:16:28.187Z,50.908073
2022-10-20T10:17:28.172Z,50.908089
2022-10-20T10:18:28.196Z,50.908047
2022-10-20T10:19:28.152Z,50.908073
2022-10-20T10:20:28.156Z,50.908005
2022-10-20T10:21:28.146Z,50.908031
2022-10-20T10:22:28.141Z,50.908096
2022-10-20T10:23:28.154Z,50.908081
2022-10-20T10:24:28.116Z,50.908100
2022-10-20T10:25:28.123Z,50.908092
2022-10-20T10:26:28.121Z,50.908112
2022-10-20T10:27:28.097Z,50.908123
2022-10-20T10:28:28.121Z,50.908104
2022-10-20T10:29:28.078Z,50.908119
2022-10-20T10:30:28.082Z,50.908089
2022-10-20T10:31:28.062Z,50.908058
2022-10-20T10:32:28.056Z,50.908131
2022-10-20T10:33:28.067Z,50.908066
2022-10-20T10:34:28.040Z,50.908070
2022-10-20T10:35:28.027Z,50.908070
2022-10-20T10:36:28.020Z,50.908085
2022-10-20T10:37:29.728Z,50.908108
2022-10-20T10:38:27.996Z,50.908108
2022-10-20T10:39:28.021Z,50.908001
2022-10-20T10:40:27.986Z,50.907959
2022-10-20T10:41:27.977Z,50.907990
2022-10-20T10:42:27.977Z,50.908058
2022-10-20T10:43:27.955Z,50.908062
2022-10-20T10:44:27.973Z,50.908092
2022-10-20T10:45:27.946Z,50.908073
2022-10-20T10:46:27.941Z,50.908043
2022-10-20T10:47:27.929Z,50.908081
2022-10-20T10:48:27.925Z,50.908096
2022-10-20T10:49:27.933Z,50.908073
2022-10-20T10:50:27.911Z,50.908024
2022-10-20T10:51:27.898Z,50.908043
2022-10-20T10:52:27.890Z,50.908054
2022-10-20T10:53:27.887Z,50.908100
2022-10-20T10:54:27.906Z,50.908054
2022-10-20T10:55:47.848Z,50.908066
2022-10-20T10:56:29.859Z,50.908047
2022-10-20T10:57:27.856Z,50.908066
2022-10-20T10:58:27.842Z,50.908039
2022-10-20T10:59:27.859Z,50.908016
2022-10-20T11:00:27.823Z,50.908035
2022-10-20T11:01:27.820Z,50.908047
2022-10-20T11:02:27.807Z,50.908112
2022-10-20T11:03:27.835Z,50.908047
2022-10-20T11:04:27.794Z,50.908039
2022-10-20T11:05:27.788Z,50.908051
2022-10-20T11:06:27.780Z,50.908047
2022-10-20T11:07:27.772Z,50.908051
2022-10-20T11:08:27.832Z,50.908085
2022-10-20T11:09:27.779Z,50.908108
2022-10-20T11:10:27.749Z,50.908092
2022-10-20T11:11:27.739Z,50.908062
2022-10-20T11:12:27.732Z,50.908062
2022-10-20T11:13:27.739Z,50.908039
2022-10-20T11:14:27.740Z,50.908077
2022-10-20T11:15:27.708Z,50.908100
2022-10-20T11:16:27.698Z,50.908146
2022-10-20T11:17:27.691Z,50.908081
2022-10-20T11:18:27.684Z,50.908070
2022-10-20T11:19:27.702Z,50.908115
2022-10-20T11:20:27.667Z,50.908131
2022-10-20T11:21:27.662Z,50.908104
2022-10-20T11:22:27.651Z,50.908051
2022-10-20T11:23:27.695Z,50.908092
2022-10-20T11:24:27.666Z,50.908089
2022-10-20T11:25:27.623Z,50.908073